sensor_id;sensor_type;location;lat;lon;timestamp;P1;durP1;ratioP1;P2;durP2;ratioP2
15327;SDS011;7764;51.430;6.840;2023-11-21T00:00:01;19.70;;;11.27;;
15327;SDS011;7764;51.430;6.840;2023-11-21T00:02:28;19.83;;;11.70;;
15327;SDS011;7764;51.430;6.840;2023-11-21T00:04:55;21.17;;;10.80;;
15327;SDS011;7764;51.430;6.840;2023-11-21T00:07:22;19.83;;;11.37;;
15327;SDS011;7764;51.430;6.840;2023-11-21T00:09:48;17.63;;;10.77;;
15327;SDS011;7764;51.430;6.840;2023-11-21T00:12:16;19.33;;;12.40;;
15327;SDS011;7764;51.430;6.840;2023-11-21T00:14:44;22.10;;;12.20;;
15327;SDS011;7764;51.430;6.840;2023-11-21T00:17:11;20.40;;;11.43;;
15327;SDS011;7764;51.430;6.840;2023-11-21T00:19:38;21.57;;;11.97;;
15327;SDS011;7764;51.430;6.840;2023-11-21T00:22:04;20.73;;;11.80;;
15327;SDS011;7764;51.430;6.840;2023-11-21T00:24:32;18.40;;;11.00;;
15327;SDS011;7764;51.430;6.840;2023-11-21T00:26:58;18.07;;;10.93;;
15327;SDS011;7764;51.430;6.840;2023-11-21T00:29:28;19.33;;;11.17;;
15327;SDS011;7764;51.430;6.840;2023-11-21T00:31:56;22.57;;;11.63;;
15327;SDS011;7764;51.430;6.840;2023-11-21T00:34:23;21.47;;;12.30;;
15327;SDS011;7764;51.430;6.840;2023-11-21T00:36:50;19.27;;;11.53;;
15327;SDS011;7764;51.430;6.840;2023-11-21T00:39:17;24.57;;;12.40;;
15327;SDS011;7764;51.430;6.840;2023-11-21T00:41:44;20.87;;;11.77;;
15327;SDS011;7764;51.430;6.840;2023-11-21T00:44:11;20.83;;;11.87;;
15327;SDS011;7764;51.430;6.840;2023-11-21T00:46:38;17.97;;;10.77;;
15327;SDS011;7764;51.430;6.840;2023-11-21T00:49:06;20.10;;;11.30;;
15327;SDS011;7764;51.430;6.840;2023-11-21T00:51:33;21.60;;;11.00;;
15327;SDS011;7764;51.430;6.840;2023-11-21T00:54:00;23.00;;;12.00;;
15327;SDS011;7764;51.430;6.840;2023-11-21T00:56:28;18.83;;;11.23;;
15327;SDS011;7764;51.430;6.840;2023-11-21T00:58:54;20.03;;;10.83;;
15327;SDS011;7764;51.430;6.840;2023-11-21T01:01:21;16.27;;;11.20;;
15327;SDS011;7764;51.430;6.840;2023-11-21T01:03:49;20.03;;;12.53;;
15327;SDS011;7764;51.430;6.840;2023-11-21T01:06:17;19.83;;;11.07;;
15327;SDS011;7764;51.430;6.840;2023-11-21T01:08:44;20.27;;;11.93;;
15327;SDS011;7764;51.430;6.840;2023-11-21T01:11:11;18.00;;;11.83;;
15327;SDS011;7764;51.430;6.840;2023-11-21T01:13:39;20.37;;;11.47;;
15327;SDS011;7764;51.430;6.840;2023-11-21T01:16:07;21.87;;;12.30;;
15327;SDS011;7764;51.430;6.840;2023-11-21T01:18:34;18.90;;;12.00;;
15327;SDS011;7764;51.430;6.840;2023-11-21T01:21:01;19.07;;;10.10;;
15327;SDS011;7764;51.430;6.840;2023-11-21T01:23:29;17.83;;;10.80;;
15327;SDS011;7764;51.430;6.840;2023-11-21T01:25:56;25.43;;;12.77;;
15327;SDS011;7764;51.430;6.840;2023-11-21T01:28:23;20.63;;;11.73;;
15327;SDS011;7764;51.430;6.840;2023-11-21T01:30:51;18.57;;;11.53;;
15327;SDS011;7764;51.430;6.840;2023-11-21T01:33:21;19.87;;;11.50;;
15327;SDS011;7764;51.430;6.840;2023-11-21T01:35:49;23.90;;;12.30;;
15327;SDS011;7764;51.430;6.840;2023-11-21T01:38:18;20.50;;;12.27;;
15327;SDS011;7764;51.430;6.840;2023-11-21T01:40:46;20.33;;;11.50;;
15327;SDS011;7764;51.430;6.840;2023-11-21T01:43:13;19.67;;;12.13;;
15327;SDS011;7764;51.430;6.840;2023-11-21T01:45:40;24.87;;;13.20;;
15327;SDS011;7764;51.430;6.840;2023-11-21T01:48:06;21.73;;;12.60;;
15327;SDS011;7764;51.430;6.840;2023-11-21T01:50:34;23.97;;;14.03;;
15327;SDS011;7764;51.430;6.840;2023-11-21T01:53:01;25.57;;;13.60;;
15327;SDS011;7764;51.430;6.840;2023-11-21T01:55:28;28.47;;;14.20;;
15327;SDS011;7764;51.430;6.840;2023-11-21T01:57:57;25.13;;;13.97;;
15327;SDS011;7764;51.430;6.840;2023-11-21T02:00:24;26.97;;;13.77;;
15327;SDS011;7764;51.430;6.840;2023-11-21T02:02:53;25.07;;;14.20;;
15327;SDS011;7764;51.430;6.840;2023-11-21T02:05:20;29.93;;;15.20;;
15327;SDS011;7764;51.430;6.840;2023-11-21T02:07:47;24.27;;;14.67;;
15327;SDS011;7764;51.430;6.840;2023-11-21T02:10:14;25.83;;;14.10;;
15327;SDS011;7764;51.430;6.840;2023-11-21T02:12:41;27.17;;;15.20;;
15327;SDS011;7764;51.430;6.840;2023-11-21T02:15:11;24.67;;;13.47;;
15327;SDS011;7764;51.430;6.840;2023-11-21T02:17:42;22.37;;;13.30;;
15327;SDS011;7764;51.430;6.840;2023-11-21T02:20:09;23.80;;;14.23;;
15327;SDS011;7764;51.430;6.840;2023-11-21T02:22:40;25.03;;;14.03;;
15327;SDS011;7764;51.430;6.840;2023-11-21T02:25:09;25.37;;;12.90;;
15327;SDS011;7764;51.430;6.840;2023-11-21T02:27:36;22.77;;;12.97;;
15327;SDS011;7764;51.430;6.840;2023-11-21T02:30:03;24.57;;;13.60;;
15327;SDS011;7764;51.430;6.840;2023-11-21T02:32:32;21.63;;;12.93;;
15327;SDS011;7764;51.430;6.840;2023-11-21T02:35:00;23.23;;;13.50;;
15327;SDS011;7764;51.430;6.840;2023-11-21T02:37:32;24.47;;;13.03;;
15327;SDS011;7764;51.430;6.840;2023-11-21T02:40:00;21.00;;;13.10;;
15327;SDS011;7764;51.430;6.840;2023-11-21T02:42:30;23.00;;;13.13;;
15327;SDS011;7764;51.430;6.840;2023-11-21T02:44:57;24.70;;;14.60;;
15327;SDS011;7764;51.430;6.840;2023-11-21T02:47:24;27.23;;;14.80;;
15327;SDS011;7764;51.430;6.840;2023-11-21T02:49:50;27.30;;;14.60;;
15327;SDS011;7764;51.430;6.840;2023-11-21T02:52:18;26.67;;;14.90;;
15327;SDS011;7764;51.430;6.840;2023-11-21T02:54:45;26.43;;;14.20;;
15327;SDS011;7764;51.430;6.840;2023-11-21T02:57:11;22.47;;;14.03;;
15327;SDS011;7764;51.430;6.840;2023-11-21T02:59:40;26.33;;;14.13;;
15327;SDS011;7764;51.430;6.840;2023-11-21T03:02:07;24.07;;;14.07;;
15327;SDS011;7764;51.430;6.840;2023-11-21T03:04:34;23.87;;;13.73;;
15327;SDS011;7764;51.430;6.840;2023-11-21T03:07:01;25.07;;;14.37;;
15327;SDS011;7764;51.430;6.840;2023-11-21T03:09:28;26.70;;;14.53;;
15327;SDS011;7764;51.430;6.840;2023-11-21T03:11:55;23.57;;;14.50;;
15327;SDS011;7764;51.430;6.840;2023-11-21T03:14:22;23.33;;;14.10;;
15327;SDS011;7764;51.430;6.840;2023-11-21T03:16:50;27.20;;;15.27;;
15327;SDS011;7764;51.430;6.840;2023-11-21T03:19:17;22.87;;;14.03;;
15327;SDS011;7764;51.430;6.840;2023-11-21T03:21:44;26.87;;;15.60;;
15327;SDS011;7764;51.430;6.840;2023-11-21T03:24:11;25.43;;;15.17;;
15327;SDS011;7764;51.430;6.840;2023-11-21T03:26:38;25.97;;;14.80;;
15327;SDS011;7764;51.430;6.840;2023-11-21T03:29:04;26.13;;;14.27;;
15327;SDS011;7764;51.430;6.840;2023-11-21T03:31:31;24.63;;;14.13;;
15327;SDS011;7764;51.430;6.840;2023-11-21T03:33:59;23.13;;;14.80;;
15327;SDS011;7764;51.430;6.840;2023-11-21T03:36:26;27.13;;;15.23;;
15327;SDS011;7764;51.430;6.840;2023-11-21T03:38:53;24.50;;;15.27;;
15327;SDS011;7764;51.430;6.840;2023-11-21T03:41:20;28.03;;;14.83;;
15327;SDS011;7764;51.430;6.840;2023-11-21T03:43:47;24.53;;;15.10;;
15327;SDS011;7764;51.430;6.840;2023-11-21T03:46:14;29.47;;;16.37;;
15327;SDS011;7764;51.430;6.840;2023-11-21T03:48:41;28.83;;;16.17;;
15327;SDS011;7764;51.430;6.840;2023-11-21T03:51:09;25.83;;;16.23;;
15327;SDS011;7764;51.430;6.840;2023-11-21T03:53:36;31.60;;;16.13;;
15327;SDS011;7764;51.430;6.840;2023-11-21T03:56:03;26.80;;;15.20;;
15327;SDS011;7764;51.430;6.840;2023-11-21T03:58:30;25.70;;;15.63;;
15327;SDS011;7764;51.430;6.840;2023-11-21T04:00:57;29.97;;;15.47;;
15327;SDS011;7764;51.430;6.840;2023-11-21T04:03:24;26.40;;;16.30;;
15327;SDS011;7764;51.430;6.840;2023-11-21T04:05:51;28.97;;;16.53;;
15327;SDS011;7764;51.430;6.840;2023-11-21T04:08:19;26.53;;;16.17;;
15327;SDS011;7764;51.430;6.840;2023-11-21T04:10:46;27.67;;;16.20;;
15327;SDS011;7764;51.430;6.840;2023-11-21T04:13:13;28.77;;;16.10;;
15327;SDS011;7764;51.430;6.840;2023-11-21T04:15:40;29.87;;;16.87;;
15327;SDS011;7764;51.430;6.840;2023-11-21T04:18:07;27.80;;;16.20;;
15327;SDS011;7764;51.430;6.840;2023-11-21T04:20:34;33.53;;;17.00;;
15327;SDS011;7764;51.430;6.840;2023-11-21T04:23:01;33.00;;;17.90;;
15327;SDS011;7764;51.430;6.840;2023-11-21T04:25:31;35.00;;;17.90;;
15327;SDS011;7764;51.430;6.840;2023-11-21T04:27:58;28.80;;;16.80;;
15327;SDS011;7764;51.430;6.840;2023-11-21T04:30:25;29.47;;;16.90;;
15327;SDS011;7764;51.430;6.840;2023-11-21T04:32:51;36.47;;;21.27;;
15327;SDS011;7764;51.430;6.840;2023-11-21T04:35:18;33.67;;;18.10;;
15327;SDS011;7764;51.430;6.840;2023-11-21T04:37:45;31.93;;;18.70;;
15327;SDS011;7764;51.430;6.840;2023-11-21T04:40:12;33.33;;;17.80;;
15327;SDS011;7764;51.430;6.840;2023-11-21T04:42:41;34.87;;;18.43;;
15327;SDS011;7764;51.430;6.840;2023-11-21T04:45:08;34.57;;;18.60;;
15327;SDS011;7764;51.430;6.840;2023-11-21T04:47:36;33.00;;;19.77;;
15327;SDS011;7764;51.430;6.840;2023-11-21T04:50:03;33.50;;;18.53;;
15327;SDS011;7764;51.430;6.840;2023-11-21T04:52:31;37.20;;;20.40;;
15327;SDS011;7764;51.430;6.840;2023-11-21T04:54:58;36.47;;;19.97;;
15327;SDS011;7764;51.430;6.840;2023-11-21T04:57:26;35.67;;;20.47;;
15327;SDS011;7764;51.430;6.840;2023-11-21T04:59:55;38.43;;;20.07;;
15327;SDS011;7764;51.430;6.840;2023-11-21T05:02:22;36.27;;;20.50;;
15327;SDS011;7764;51.430;6.840;2023-11-21T05:04:49;43.00;;;21.90;;
15327;SDS011;7764;51.430;6.840;2023-11-21T05:07:16;39.77;;;22.23;;
15327;SDS011;7764;51.430;6.840;2023-11-21T05:09:43;39.43;;;20.40;;
15327;SDS011;7764;51.430;6.840;2023-11-21T05:12:11;39.10;;;20.77;;
15327;SDS011;7764;51.430;6.840;2023-11-21T05:14:37;37.13;;;21.53;;
15327;SDS011;7764;51.430;6.840;2023-11-21T05:17:05;58.97;;;38.80;;
15327;SDS011;7764;51.430;6.840;2023-11-21T05:19:33;36.37;;;21.73;;
15327;SDS011;7764;51.430;6.840;2023-11-21T05:22:01;34.77;;;19.57;;
15327;SDS011;7764;51.430;6.840;2023-11-21T05:24:27;36.73;;;20.50;;
15327;SDS011;7764;51.430;6.840;2023-11-21T05:26:54;37.70;;;20.50;;
15327;SDS011;7764;51.430;6.840;2023-11-21T05:29:22;34.47;;;20.80;;
15327;SDS011;7764;51.430;6.840;2023-11-21T05:31:50;85.80;;;59.10;;
15327;SDS011;7764;51.430;6.840;2023-11-21T05:34:19;41.73;;;21.50;;
15327;SDS011;7764;51.430;6.840;2023-11-21T05:36:49;37.10;;;20.80;;
15327;SDS011;7764;51.430;6.840;2023-11-21T05:39:16;36.37;;;20.33;;
15327;SDS011;7764;51.430;6.840;2023-11-21T05:41:44;38.53;;;19.67;;
15327;SDS011;7764;51.430;6.840;2023-11-21T05:44:11;37.13;;;20.00;;
15327;SDS011;7764;51.430;6.840;2023-11-21T05:46:39;44.73;;;21.07;;
15327;SDS011;7764;51.430;6.840;2023-11-21T05:49:08;39.50;;;21.17;;
15327;SDS011;7764;51.430;6.840;2023-11-21T05:51:36;41.53;;;22.20;;
15327;SDS011;7764;51.430;6.840;2023-11-21T05:54:03;42.53;;;22.43;;
15327;SDS011;7764;51.430;6.840;2023-11-21T05:56:30;37.17;;;20.47;;
15327;SDS011;7764;51.430;6.840;2023-11-21T05:58:57;38.53;;;21.43;;
15327;SDS011;7764;51.430;6.840;2023-11-21T06:01:25;39.27;;;21.57;;
15327;SDS011;7764;51.430;6.840;2023-11-21T06:03:55;40.60;;;21.83;;
15327;SDS011;7764;51.430;6.840;2023-11-21T06:06:22;40.00;;;21.27;;
15327;SDS011;7764;51.430;6.840;2023-11-21T06:08:52;45.07;;;22.37;;
15327;SDS011;7764;51.430;6.840;2023-11-21T06:11:19;36.97;;;20.77;;
15327;SDS011;7764;51.430;6.840;2023-11-21T06:13:46;39.37;;;20.90;;
15327;SDS011;7764;51.430;6.840;2023-11-21T06:16:13;41.73;;;22.33;;
15327;SDS011;7764;51.430;6.840;2023-11-21T06:18:42;43.30;;;22.80;;
15327;SDS011;7764;51.430;6.840;2023-11-21T06:21:09;41.67;;;21.40;;
15327;SDS011;7764;51.430;6.840;2023-11-21T06:23:36;43.37;;;24.17;;
15327;SDS011;7764;51.430;6.840;2023-11-21T06:26:04;46.20;;;23.53;;
15327;SDS011;7764;51.430;6.840;2023-11-21T06:28:31;45.80;;;22.83;;
15327;SDS011;7764;51.430;6.840;2023-11-21T06:30:58;40.20;;;23.00;;
15327;SDS011;7764;51.430;6.840;2023-11-21T06:33:30;37.73;;;21.40;;
15327;SDS011;7764;51.430;6.840;2023-11-21T06:35:57;49.17;;;23.90;;
15327;SDS011;7764;51.430;6.840;2023-11-21T06:38:24;47.60;;;23.97;;
15327;SDS011;7764;51.430;6.840;2023-11-21T06:40:55;48.27;;;24.30;;
15327;SDS011;7764;51.430;6.840;2023-11-21T06:43:23;49.00;;;24.13;;
15327;SDS011;7764;51.430;6.840;2023-11-21T06:45:50;50.33;;;24.90;;
15327;SDS011;7764;51.430;6.840;2023-11-21T06:48:18;54.00;;;26.33;;
15327;SDS011;7764;51.430;6.840;2023-11-21T06:50:45;54.17;;;25.77;;
15327;SDS011;7764;51.430;6.840;2023-11-21T06:53:12;50.43;;;26.07;;
15327;SDS011;7764;51.430;6.840;2023-11-21T06:55:39;61.00;;;27.90;;
15327;SDS011;7764;51.430;6.840;2023-11-21T06:58:06;79.67;;;39.63;;
15327;SDS011;7764;51.430;6.840;2023-11-21T07:00:35;79.13;;;32.57;;
15327;SDS011;7764;51.430;6.840;2023-11-21T07:03:02;107.93;;;41.80;;
15327;SDS011;7764;51.430;6.840;2023-11-21T07:05:29;111.47;;;43.13;;
15327;SDS011;7764;51.430;6.840;2023-11-21T07:07:57;104.87;;;41.07;;
15327;SDS011;7764;51.430;6.840;2023-11-21T07:10:29;108.63;;;40.73;;
15327;SDS011;7764;51.430;6.840;2023-11-21T07:12:56;96.10;;;38.33;;
15327;SDS011;7764;51.430;6.840;2023-11-21T07:15:23;102.90;;;39.00;;
15327;SDS011;7764;51.430;6.840;2023-11-21T07:17:52;98.87;;;38.40;;
15327;SDS011;7764;51.430;6.840;2023-11-21T07:20:19;171.27;;;110.20;;
15327;SDS011;7764;51.430;6.840;2023-11-21T07:22:46;98.63;;;38.33;;
15327;SDS011;7764;51.430;6.840;2023-11-21T07:25:13;93.77;;;36.93;;
15327;SDS011;7764;51.430;6.840;2023-11-21T07:27:40;84.50;;;36.10;;
15327;SDS011;7764;51.430;6.840;2023-11-21T07:30:07;81.30;;;33.43;;
15327;SDS011;7764;51.430;6.840;2023-11-21T07:32:35;94.10;;;48.97;;
15327;SDS011;7764;51.430;6.840;2023-11-21T07:35:04;82.73;;;37.40;;
15327;SDS011;7764;51.430;6.840;2023-11-21T07:37:34;77.90;;;34.70;;
15327;SDS011;7764;51.430;6.840;2023-11-21T07:40:01;93.93;;;41.23;;
15327;SDS011;7764;51.430;6.840;2023-11-21T07:42:33;82.43;;;34.57;;
15327;SDS011;7764;51.430;6.840;2023-11-21T07:45:00;77.07;;;33.20;;
15327;SDS011;7764;51.430;6.840;2023-11-21T07:47:27;81.57;;;33.53;;
15327;SDS011;7764;51.430;6.840;2023-11-21T07:49:55;77.87;;;31.67;;
15327;SDS011;7764;51.430;6.840;2023-11-21T07:52:23;76.00;;;32.30;;
15327;SDS011;7764;51.430;6.840;2023-11-21T07:54:50;78.50;;;32.13;;
15327;SDS011;7764;51.430;6.840;2023-11-21T07:57:17;76.60;;;31.60;;
15327;SDS011;7764;51.430;6.840;2023-11-21T07:59:44;83.53;;;40.73;;
15327;SDS011;7764;51.430;6.840;2023-11-21T08:02:10;230.40;;;152.67;;
15327;SDS011;7764;51.430;6.840;2023-11-21T08:04:37;77.33;;;33.23;;
15327;SDS011;7764;51.430;6.840;2023-11-21T08:07:05;75.23;;;30.77;;
15327;SDS011;7764;51.430;6.840;2023-11-21T08:09:34;75.00;;;32.17;;
15327;SDS011;7764;51.430;6.840;2023-11-21T08:12:01;75.00;;;31.47;;
15327;SDS011;7764;51.430;6.840;2023-11-21T08:14:29;73.53;;;31.87;;
15327;SDS011;7764;51.430;6.840;2023-11-21T08:16:57;74.23;;;31.17;;
15327;SDS011;7764;51.430;6.840;2023-11-21T08:19:24;71.60;;;31.23;;
15327;SDS011;7764;51.430;6.840;2023-11-21T08:21:52;68.00;;;30.40;;
15327;SDS011;7764;51.430;6.840;2023-11-21T08:24:19;81.30;;;32.10;;
15327;SDS011;7764;51.430;6.840;2023-11-21T08:26:48;73.17;;;32.87;;
15327;SDS011;7764;51.430;6.840;2023-11-21T08:29:16;70.37;;;31.73;;
15327;SDS011;7764;51.430;6.840;2023-11-21T08:31:43;85.13;;;36.47;;
15327;SDS011;7764;51.430;6.840;2023-11-21T08:34:11;77.73;;;34.03;;
15327;SDS011;7764;51.430;6.840;2023-11-21T08:36:41;74.90;;;34.07;;
15327;SDS011;7764;51.430;6.840;2023-11-21T08:39:08;71.97;;;32.70;;
15327;SDS011;7764;51.430;6.840;2023-11-21T08:41:35;75.73;;;33.43;;
15327;SDS011;7764;51.430;6.840;2023-11-21T08:44:04;72.93;;;34.07;;
15327;SDS011;7764;51.430;6.840;2023-11-21T08:46:32;68.47;;;33.27;;
15327;SDS011;7764;51.430;6.840;2023-11-21T08:49:03;71.73;;;32.00;;
15327;SDS011;7764;51.430;6.840;2023-11-21T08:51:31;69.70;;;30.80;;
15327;SDS011;7764;51.430;6.840;2023-11-21T08:53:58;77.07;;;33.23;;
15327;SDS011;7764;51.430;6.840;2023-11-21T08:56:29;74.13;;;31.53;;
15327;SDS011;7764;51.430;6.840;2023-11-21T08:58:56;74.23;;;32.07;;
15327;SDS011;7764;51.430;6.840;2023-11-21T09:01:24;79.20;;;33.03;;
15327;SDS011;7764;51.430;6.840;2023-11-21T09:03:51;78.57;;;31.93;;
15327;SDS011;7764;51.430;6.840;2023-11-21T09:06:18;77.70;;;32.47;;
15327;SDS011;7764;51.430;6.840;2023-11-21T09:08:45;78.93;;;33.77;;
15327;SDS011;7764;51.430;6.840;2023-11-21T09:11:12;80.67;;;34.17;;
15327;SDS011;7764;51.430;6.840;2023-11-21T09:13:39;78.63;;;34.20;;
15327;SDS011;7764;51.430;6.840;2023-11-21T09:16:07;82.73;;;33.83;;
15327;SDS011;7764;51.430;6.840;2023-11-21T09:18:35;78.47;;;35.23;;
15327;SDS011;7764;51.430;6.840;2023-11-21T09:21:02;72.90;;;33.57;;
15327;SDS011;7764;51.430;6.840;2023-11-21T09:23:30;76.10;;;33.47;;
15327;SDS011;7764;51.430;6.840;2023-11-21T09:25:57;79.40;;;33.90;;
15327;SDS011;7764;51.430;6.840;2023-11-21T09:28:25;78.90;;;34.90;;
15327;SDS011;7764;51.430;6.840;2023-11-21T09:30:52;82.57;;;34.73;;
15327;SDS011;7764;51.430;6.840;2023-11-21T09:33:19;79.40;;;35.00;;
15327;SDS011;7764;51.430;6.840;2023-11-21T09:35:48;83.67;;;36.10;;
15327;SDS011;7764;51.430;6.840;2023-11-21T09:38:16;84.53;;;33.83;;
15327;SDS011;7764;51.430;6.840;2023-11-21T09:40:42;88.33;;;36.03;;
15327;SDS011;7764;51.430;6.840;2023-11-21T09:43:13;97.47;;;50.10;;
15327;SDS011;7764;51.430;6.840;2023-11-21T09:45:45;78.47;;;35.70;;
15327;SDS011;7764;51.430;6.840;2023-11-21T09:48:13;76.03;;;33.37;;
15327;SDS011;7764;51.430;6.840;2023-11-21T09:50:41;75.60;;;34.17;;
15327;SDS011;7764;51.430;6.840;2023-11-21T09:56:17;82.97;;;34.60;;
15327;SDS011;7764;51.430;6.840;2023-11-21T09:58:50;81.57;;;36.13;;
15327;SDS011;7764;51.430;6.840;2023-11-21T10:01:18;91.30;;;36.90;;
15327;SDS011;7764;51.430;6.840;2023-11-21T10:03:46;94.17;;;39.73;;
15327;SDS011;7764;51.430;6.840;2023-11-21T10:06:16;118.83;;;41.27;;
15327;SDS011;7764;51.430;6.840;2023-11-21T10:08:48;97.33;;;41.57;;
15327;SDS011;7764;51.430;6.840;2023-11-21T10:11:16;114.33;;;45.53;;
15327;SDS011;7764;51.430;6.840;2023-11-21T10:13:46;102.27;;;44.33;;
15327;SDS011;7764;51.430;6.840;2023-11-21T10:16:15;107.73;;;47.97;;
15327;SDS011;7764;51.430;6.840;2023-11-21T10:18:47;100.50;;;42.60;;
15327;SDS011;7764;51.430;6.840;2023-11-21T10:21:17;85.00;;;39.53;;
15327;SDS011;7764;51.430;6.840;2023-11-21T10:23:44;66.07;;;31.73;;
15327;SDS011;7764;51.430;6.840;2023-11-21T10:26:15;85.43;;;36.10;;
15327;SDS011;7764;51.430;6.840;2023-11-21T10:28:54;80.83;;;35.17;;
15327;SDS011;7764;51.430;6.840;2023-11-21T10:31:22;83.20;;;34.20;;
15327;SDS011;7764;51.430;6.840;2023-11-21T10:33:50;78.90;;;33.90;;
15327;SDS011;7764;51.430;6.840;2023-11-21T10:36:24;81.60;;;36.63;;
15327;SDS011;7764;51.430;6.840;2023-11-21T10:38:54;86.33;;;35.57;;
15327;SDS011;7764;51.430;6.840;2023-11-21T10:41:28;81.43;;;35.17;;
15327;SDS011;7764;51.430;6.840;2023-11-21T10:43:57;82.17;;;35.43;;
15327;SDS011;7764;51.430;6.840;2023-11-21T10:46:24;85.77;;;36.07;;
15327;SDS011;7764;51.430;6.840;2023-11-21T10:48:54;84.43;;;35.80;;
15327;SDS011;7764;51.430;6.840;2023-11-21T10:51:21;85.17;;;35.93;;
15327;SDS011;7764;51.430;6.840;2023-11-21T10:53:49;88.30;;;36.93;;
15327;SDS011;7764;51.430;6.840;2023-11-21T10:56:18;86.37;;;35.70;;
15327;SDS011;7764;51.430;6.840;2023-11-21T10:58:50;85.93;;;36.53;;
15327;SDS011;7764;51.430;6.840;2023-11-21T11:01:18;83.43;;;36.77;;
15327;SDS011;7764;51.430;6.840;2023-11-21T11:03:47;79.83;;;35.60;;
15327;SDS011;7764;51.430;6.840;2023-11-21T11:06:15;88.90;;;37.60;;
15327;SDS011;7764;51.430;6.840;2023-11-21T11:08:45;86.90;;;36.27;;
15327;SDS011;7764;51.430;6.840;2023-11-21T11:11:14;85.37;;;38.27;;
15327;SDS011;7764;51.430;6.840;2023-11-21T11:13:49;87.73;;;36.50;;
15327;SDS011;7764;51.430;6.840;2023-11-21T11:16:18;93.37;;;38.87;;
15327;SDS011;7764;51.430;6.840;2023-11-21T11:18:49;78.10;;;35.53;;
15327;SDS011;7764;51.430;6.840;2023-11-21T11:21:22;93.07;;;38.27;;
15327;SDS011;7764;51.430;6.840;2023-11-21T11:24:08;87.07;;;37.70;;
15327;SDS011;7764;51.430;6.840;2023-11-21T11:26:56;95.30;;;39.77;;
15327;SDS011;7764;51.430;6.840;2023-11-21T11:29:36;90.87;;;37.90;;
15327;SDS011;7764;51.430;6.840;2023-11-21T11:32:12;86.27;;;38.43;;
15327;SDS011;7764;51.430;6.840;2023-11-21T11:34:47;97.07;;;41.90;;
15327;SDS011;7764;51.430;6.840;2023-11-21T11:37:23;96.13;;;40.47;;
15327;SDS011;7764;51.430;6.840;2023-11-21T11:39:50;92.43;;;38.13;;
15327;SDS011;7764;51.430;6.840;2023-11-21T11:42:19;94.13;;;41.70;;
15327;SDS011;7764;51.430;6.840;2023-11-21T11:44:50;92.37;;;40.33;;
15327;SDS011;7764;51.430;6.840;2023-11-21T11:47:20;96.60;;;41.80;;
15327;SDS011;7764;51.430;6.840;2023-11-21T11:50:00;101.47;;;39.17;;
15327;SDS011;7764;51.430;6.840;2023-11-21T11:52:36;81.27;;;35.43;;
15327;SDS011;7764;51.430;6.840;2023-11-21T11:55:06;79.07;;;33.70;;
15327;SDS011;7764;51.430;6.840;2023-11-21T11:57:36;85.60;;;35.00;;
15327;SDS011;7764;51.430;6.840;2023-11-21T12:00:09;83.30;;;36.90;;
15327;SDS011;7764;51.430;6.840;2023-11-21T12:02:41;88.10;;;39.27;;
15327;SDS011;7764;51.430;6.840;2023-11-21T12:05:09;97.87;;;39.03;;
15327;SDS011;7764;51.430;6.840;2023-11-21T12:07:50;81.57;;;36.50;;
15327;SDS011;7764;51.430;6.840;2023-11-21T12:10:23;94.87;;;40.80;;
15327;SDS011;7764;51.430;6.840;2023-11-21T12:12:51;86.70;;;38.47;;
15327;SDS011;7764;51.430;6.840;2023-11-21T12:15:20;92.70;;;39.03;;
15327;SDS011;7764;51.430;6.840;2023-11-21T12:17:48;90.43;;;40.83;;
15327;SDS011;7764;51.430;6.840;2023-11-21T12:20:17;92.43;;;39.53;;
15327;SDS011;7764;51.430;6.840;2023-11-21T12:22:45;90.20;;;37.87;;
15327;SDS011;7764;51.430;6.840;2023-11-21T12:25:14;87.13;;;36.60;;
15327;SDS011;7764;51.430;6.840;2023-11-21T12:27:43;83.03;;;38.00;;
15327;SDS011;7764;51.430;6.840;2023-11-21T12:30:12;86.23;;;36.50;;
15327;SDS011;7764;51.430;6.840;2023-11-21T12:32:42;81.87;;;35.27;;
15327;SDS011;7764;51.430;6.840;2023-11-21T12:35:11;65.20;;;28.63;;
15327;SDS011;7764;51.430;6.840;2023-11-21T12:37:38;47.53;;;23.07;;
15327;SDS011;7764;51.430;6.840;2023-11-21T12:40:08;45.47;;;24.83;;
15327;SDS011;7764;51.430;6.840;2023-11-21T12:42:37;44.50;;;24.00;;
15327;SDS011;7764;51.430;6.840;2023-11-21T12:45:07;48.10;;;24.30;;
15327;SDS011;7764;51.430;6.840;2023-11-21T12:47:39;48.53;;;26.37;;
15327;SDS011;7764;51.430;6.840;2023-11-21T12:50:10;51.40;;;26.50;;
15327;SDS011;7764;51.430;6.840;2023-11-21T12:52:41;50.70;;;26.10;;
15327;SDS011;7764;51.430;6.840;2023-11-21T12:55:13;51.50;;;25.57;;
15327;SDS011;7764;51.430;6.840;2023-11-21T12:57:42;50.63;;;26.63;;
15327;SDS011;7764;51.430;6.840;2023-11-21T13:00:10;49.57;;;25.57;;
15327;SDS011;7764;51.430;6.840;2023-11-21T13:02:53;42.60;;;21.70;;
15327;SDS011;7764;51.430;6.840;2023-11-21T13:05:23;43.20;;;22.43;;
15327;SDS011;7764;51.430;6.840;2023-11-21T13:07:51;36.57;;;19.77;;
15327;SDS011;7764;51.430;6.840;2023-11-21T13:10:19;29.03;;;17.13;;
15327;SDS011;7764;51.430;6.840;2023-11-21T13:12:50;27.17;;;16.33;;
15327;SDS011;7764;51.430;6.840;2023-11-21T13:15:18;27.20;;;17.37;;
15327;SDS011;7764;51.430;6.840;2023-11-21T13:17:46;27.37;;;16.57;;
15327;SDS011;7764;51.430;6.840;2023-11-21T13:20:15;28.27;;;16.60;;
15327;SDS011;7764;51.430;6.840;2023-11-21T13:22:46;25.27;;;15.37;;
15327;SDS011;7764;51.430;6.840;2023-11-21T13:25:15;24.07;;;14.60;;
15327;SDS011;7764;51.430;6.840;2023-11-21T13:27:43;25.23;;;15.43;;
15327;SDS011;7764;51.430;6.840;2023-11-21T13:30:11;27.80;;;16.27;;
15327;SDS011;7764;51.430;6.840;2023-11-21T13:32:41;30.43;;;17.43;;
15327;SDS011;7764;51.430;6.840;2023-11-21T13:35:08;27.90;;;16.33;;
15327;SDS011;7764;51.430;6.840;2023-11-21T13:37:47;30.37;;;17.57;;
15327;SDS011;7764;51.430;6.840;2023-11-21T13:40:19;30.23;;;17.40;;
15327;SDS011;7764;51.430;6.840;2023-11-21T13:42:53;33.37;;;17.97;;
15327;SDS011;7764;51.430;6.840;2023-11-21T13:45:24;27.73;;;15.37;;
15327;SDS011;7764;51.430;6.840;2023-11-21T13:47:52;26.53;;;15.03;;
15327;SDS011;7764;51.430;6.840;2023-11-21T13:50:23;29.40;;;16.80;;
15327;SDS011;7764;51.430;6.840;2023-11-21T13:52:55;23.87;;;14.63;;
15327;SDS011;7764;51.430;6.840;2023-11-21T13:55:23;23.97;;;13.77;;
15327;SDS011;7764;51.430;6.840;2023-11-21T13:57:51;24.43;;;15.30;;
15327;SDS011;7764;51.430;6.840;2023-11-21T14:00:18;25.00;;;15.40;;
15327;SDS011;7764;51.430;6.840;2023-11-21T14:03:05;27.63;;;17.90;;
15327;SDS011;7764;51.430;6.840;2023-11-21T14:05:41;22.60;;;14.37;;
15327;SDS011;7764;51.430;6.840;2023-11-21T14:08:11;25.80;;;15.70;;
15327;SDS011;7764;51.430;6.840;2023-11-21T14:10:41;22.83;;;14.57;;
15327;SDS011;7764;51.430;6.840;2023-11-21T14:13:09;24.33;;;15.20;;
15327;SDS011;7764;51.430;6.840;2023-11-21T14:15:38;24.60;;;14.87;;
15327;SDS011;7764;51.430;6.840;2023-11-21T14:18:07;25.40;;;15.43;;
15327;SDS011;7764;51.430;6.840;2023-11-21T14:20:36;25.33;;;16.07;;
15327;SDS011;7764;51.430;6.840;2023-11-21T14:23:05;29.40;;;17.50;;
15327;SDS011;7764;51.430;6.840;2023-11-21T14:25:34;29.07;;;18.37;;
15327;SDS011;7764;51.430;6.840;2023-11-21T14:28:03;28.23;;;17.13;;
15327;SDS011;7764;51.430;6.840;2023-11-21T14:30:31;28.00;;;17.80;;
15327;SDS011;7764;51.430;6.840;2023-11-21T14:33:01;30.20;;;17.67;;
15327;SDS011;7764;51.430;6.840;2023-11-21T14:35:29;29.40;;;18.67;;
15327;SDS011;7764;51.430;6.840;2023-11-21T14:37:57;29.13;;;17.27;;
15327;SDS011;7764;51.430;6.840;2023-11-21T14:40:26;33.57;;;20.10;;
15327;SDS011;7764;51.430;6.840;2023-11-21T14:42:59;28.10;;;18.93;;